createdAt,value
2019-03-26T00:02:05.510Z,81.46
2019-03-26T00:04:37.681Z,81.72
2019-03-26T00:07:09.833Z,81.95
2019-03-26T00:09:42.010Z,82.09
2019-03-26T00:12:14.776Z,82.33
2019-03-26T00:14:46.831Z,82.27
2019-03-26T00:17:19.090Z,82.10
2019-03-26T00:19:51.353Z,82.13
2019-03-26T00:22:23.541Z,82.56
2019-03-26T00:24:55.698Z,82.66
2019-03-26T00:27:28.110Z,82.52
2019-03-26T00:30:00.546Z,82.46
2019-03-26T00:32:32.714Z,82.48
2019-03-26T00:35:04.892Z,82.41
2019-03-26T00:37:36.889Z,82.29
2019-03-26T00:40:13.119Z,82.31
2019-03-26T00:42:45.658Z,82.46
2019-03-26T00:45:17.756Z,82.65
2019-03-26T00:47:49.970Z,82.39
2019-03-26T00:50:22.098Z,82.21
2019-03-26T00:52:54.359Z,82.21
2019-03-26T00:55:26.363Z,82.67
2019-03-26T00:58:01.505Z,82.70
2019-03-26T01:00:40.216Z,82.64
2019-03-26T01:03:12.396Z,82.79
2019-03-26T01:05:45.668Z,82.80
2019-03-26T01:08:17.686Z,82.64
2019-03-26T01:10:49.554Z,82.84
2019-03-26T01:13:21.750Z,82.92
2019-03-26T01:15:53.852Z,82.79
2019-03-26T01:18:25.966Z,83.04
2019-03-26T01:20:58.011Z,83.26
2019-03-26T01:23:29.950Z,83.03
2019-03-26T01:26:02.019Z,82.75
2019-03-26T01:28:34.214Z,82.88
2019-03-26T01:31:06.557Z,83.06
2019-03-26T01:33:38.610Z,83.20
2019-03-26T01:36:10.754Z,83.30
2019-03-26T01:38:43.118Z,83.37
2019-03-26T01:41:15.426Z,83.29
2019-03-26T01:43:47.491Z,83.83
2019-03-26T01:46:19.721Z,83.96
2019-03-26T01:48:51.711Z,83.85
2019-03-26T01:51:23.932Z,83.46
2019-03-26T01:53:56.536Z,83.12
2019-03-26T01:56:29.598Z,83.02
2019-03-26T01:59:01.760Z,82.38
2019-03-26T02:01:33.775Z,82.20
2019-03-26T02:04:06.999Z,81.95
2019-03-26T02:06:39.155Z,81.56
2019-03-26T02:09:11.260Z,82.09
2019-03-26T02:11:43.400Z,82.50
2019-03-26T02:14:15.738Z,83.24
2019-03-26T02:16:47.831Z,83.36
2019-03-26T02:19:19.827Z,83.32
2019-03-26T02:21:51.869Z,83.85
2019-03-26T02:24:23.882Z,83.90
2019-03-26T02:26:56.352Z,83.96
2019-03-26T02:29:28.547Z,84.06
2019-03-26T02:32:00.380Z,84.28
2019-03-26T02:34:32.645Z,84.53
2019-03-26T02:37:05.309Z,84.89
2019-03-26T02:39:37.377Z,85.30
2019-03-26T02:42:08.107Z,85.57
2019-03-26T02:44:38.573Z,85.65
2019-03-26T02:47:09.196Z,85.71
2019-03-26T02:49:39.819Z,85.65
2019-03-26T02:52:10.260Z,85.51
2019-03-26T02:54:41.042Z,85.34
2019-03-26T02:57:11.551Z,85.23
2019-03-26T02:59:42.362Z,85.12
2019-03-26T03:02:13.914Z,85.37
2019-03-26T03:04:44.625Z,85.25
2019-03-26T03:07:15.288Z,84.97
2019-03-26T03:09:46.143Z,84.74
2019-03-26T03:12:16.630Z,84.61
2019-03-26T03:14:47.204Z,84.62
2019-03-26T03:17:17.806Z,84.57
2019-03-26T03:19:48.425Z,84.47
2019-03-26T03:22:19.080Z,84.49
2019-03-26T03:24:49.915Z,84.44
2019-03-26T03:27:20.445Z,84.65
2019-03-26T03:29:51.003Z,84.47
2019-03-26T03:32:21.475Z,84.81
2019-03-26T03:34:52.043Z,84.79
2019-03-26T03:37:22.659Z,84.82
2019-03-26T03:39:53.212Z,84.87
2019-03-26T03:42:23.641Z,84.96
2019-03-26T03:44:54.308Z,85.29
2019-03-26T03:47:26.347Z,85.14
2019-03-26T03:49:57.114Z,85.27
2019-03-26T03:52:28.965Z,85.19
2019-03-26T03:54:59.801Z,85.31
2019-03-26T03:57:31.750Z,85.21
2019-03-26T04:00:03.622Z,85.14
2019-03-26T04:02:34.026Z,85.23
2019-03-26T04:05:04.869Z,85.09
2019-03-26T04:07:35.532Z,85.22
2019-03-26T04:10:06.588Z,85.20
2019-03-26T04:12:37.352Z,85.23
2019-03-26T04:15:07.833Z,85.47
2019-03-26T04:17:38.340Z,85.74
2019-03-26T04:20:08.773Z,86.07
2019-03-26T04:22:39.276Z,86.41
2019-03-26T04:25:09.710Z,86.71
2019-03-26T04:27:40.288Z,86.86
2019-03-26T04:30:10.969Z,86.98
2019-03-26T04:32:41.549Z,87.31
2019-03-26T04:35:12.039Z,87.37
2019-03-26T04:37:42.458Z,87.56
2019-03-26T04:40:13.157Z,87.64
2019-03-26T04:42:43.617Z,87.73
2019-03-26T04:45:14.233Z,87.79
2019-03-26T04:47:44.900Z,87.86
2019-03-26T04:50:15.582Z,87.98
2019-03-26T04:52:46.223Z,87.99
2019-03-26T04:55:16.573Z,88.14
2019-03-26T04:57:47.122Z,88.20
2019-03-26T05:00:17.814Z,88.45
2019-03-26T05:02:48.401Z,88.38
2019-03-26T05:05:18.923Z,88.36
2019-03-26T05:07:49.348Z,88.17
2019-03-26T05:10:19.880Z,88.06
2019-03-26T05:12:50.320Z,87.99
2019-03-26T05:15:20.968Z,88.16
2019-03-26T05:17:51.303Z,88.35
2019-03-26T05:20:21.724Z,88.20
2019-03-26T05:22:52.230Z,88.19
2019-03-26T05:25:22.700Z,88.17
2019-03-26T05:27:53.266Z,88.11
2019-03-26T05:30:23.987Z,88.08
2019-03-26T05:32:54.656Z,87.99
2019-03-26T05:35:25.312Z,88.03
2019-03-26T05:37:55.804Z,88.36
2019-03-26T05:40:27.321Z,88.38
2019-03-26T05:42:57.675Z,88.41
2019-03-26T05:45:28.719Z,88.34
2019-03-26T05:47:59.538Z,88.34
2019-03-26T05:50:30.367Z,88.48
2019-03-26T05:53:01.363Z,88.25
2019-03-26T05:55:32.049Z,88.35
2019-03-26T05:58:02.470Z,88.29
2019-03-26T06:00:33.209Z,88.36
2019-03-26T06:03:03.797Z,88.46
2019-03-26T06:05:34.212Z,88.63
2019-03-26T06:08:06.310Z,88.69
2019-03-26T06:10:38.258Z,88.73
2019-03-26T06:13:10.206Z,88.81
2019-03-26T06:15:42.179Z,88.89
2019-03-26T06:18:14.154Z,89.02
2019-03-26T06:20:46.395Z,89.09
2019-03-26T06:23:18.726Z,89.11
2019-03-26T06:25:50.847Z,89.06
2019-03-26T06:28:22.937Z,88.99
2019-03-26T06:30:54.880Z,88.85
2019-03-26T06:33:26.974Z,88.87
2019-03-26T06:35:59.321Z,88.92
2019-03-26T06:38:31.584Z,88.83
2019-03-26T06:41:03.817Z,88.75
2019-03-26T06:43:36.046Z,88.76
2019-03-26T06:46:08.129Z,88.68
2019-03-26T06:48:41.265Z,88.54
2019-03-26T06:51:13.450Z,88.36
2019-03-26T06:53:45.491Z,88.16
2019-03-26T06:56:17.410Z,88.14
2019-03-26T06:58:50.565Z,87.88
2019-03-26T07:01:23.005Z,87.80
2019-03-26T07:03:55.170Z,87.70
2019-03-26T07:06:27.270Z,87.60
2019-03-26T07:08:59.565Z,87.34
2019-03-26T07:11:33.390Z,87.19
2019-03-26T07:14:06.099Z,87.00
2019-03-26T07:16:38.240Z,86.81
2019-03-26T07:19:10.571Z,86.59
2019-03-26T07:21:49.460Z,86.47
2019-03-26T07:24:16.665Z,86.13
2019-03-26T07:26:50.433Z,86.14
2019-03-26T07:29:23.557Z,85.73
2019-03-26T07:31:56.097Z,85.41
2019-03-26T07:34:27.996Z,82.86
2019-03-26T07:37:00.392Z,80.10
2019-03-26T07:39:32.470Z,79.38
2019-03-26T07:42:04.580Z,80.61
2019-03-26T07:44:37.665Z,81.16
2019-03-26T07:47:09.838Z,81.28
2019-03-26T07:49:42.080Z,81.73
2019-03-26T07:52:15.635Z,82.27
2019-03-26T07:54:48.272Z,81.05
2019-03-26T07:57:20.379Z,80.41
2019-03-26T07:59:52.432Z,80.74
2019-03-26T08:02:26.566Z,81.61
2019-03-26T08:04:58.545Z,81.85
2019-03-26T08:07:30.772Z,82.54
2019-03-26T08:10:02.963Z,82.68
2019-03-26T08:12:35.240Z,82.96
2019-03-26T08:15:08.154Z,82.66
2019-03-26T08:17:40.514Z,82.90
2019-03-26T08:20:12.880Z,82.57
2019-03-26T08:22:45.157Z,82.62
2019-03-26T08:25:17.689Z,82.55
2019-03-26T08:27:50.031Z,82.80
2019-03-26T08:30:22.173Z,82.55
2019-03-26T08:32:54.436Z,82.81
2019-03-26T08:35:26.371Z,82.69
2019-03-26T08:38:11.375Z,82.72
2019-03-26T08:40:32.313Z,82.59
2019-03-26T08:43:04.607Z,82.68
2019-03-26T08:45:36.692Z,82.59
2019-03-26T08:48:09.216Z,82.41
2019-03-26T08:50:41.322Z,82.53
2019-03-26T08:53:13.457Z,82.43
2019-03-26T08:55:45.427Z,82.34
2019-03-26T08:58:17.744Z,81.51
2019-03-26T09:00:49.871Z,81.66
2019-03-26T09:03:22.023Z,81.33
2019-03-26T09:05:54.064Z,80.33
2019-03-26T09:08:26.092Z,79.13
2019-03-26T09:10:58.285Z,78.79
2019-03-26T09:13:30.581Z,78.87
2019-03-26T09:16:02.743Z,78.49
2019-03-26T09:18:34.624Z,76.94
2019-03-26T09:21:07.131Z,76.79
2019-03-26T09:23:39.178Z,76.20
2019-03-26T09:26:11.363Z,75.89
2019-03-26T09:28:43.506Z,74.90
2019-03-26T09:31:15.683Z,74.95
2019-03-26T09:33:48.080Z,74.20
2019-03-26T09:36:20.314Z,74.75
2019-03-26T09:38:52.645Z,73.61
2019-03-26T09:41:25.132Z,73.79
2019-03-26T09:43:57.491Z,73.66
2019-03-26T09:46:29.951Z,72.97
2019-03-26T09:49:02.115Z,73.11
2019-03-26T09:51:34.529Z,73.78
2019-03-26T09:54:06.980Z,74.09
2019-03-26T09:56:39.539Z,73.87
2019-03-26T09:59:11.598Z,74.69
2019-03-26T10:01:43.539Z,74.71
2019-03-26T10:04:15.577Z,74.08
2019-03-26T10:06:47.566Z,74.28
2019-03-26T10:09:19.795Z,73.79
2019-03-26T10:11:51.690Z,73.23
2019-03-26T10:14:23.895Z,73.14
2019-03-26T10:16:56.069Z,72.64
2019-03-26T10:19:28.272Z,72.87
2019-03-26T10:22:00.584Z,72.15
2019-03-26T10:24:33.603Z,71.46
2019-03-26T10:27:07.194Z,72.23
2019-03-26T10:29:39.253Z,72.96
2019-03-26T10:32:11.391Z,71.38
2019-03-26T10:34:43.707Z,71.99
2019-03-26T10:37:16.212Z,71.26
2019-03-26T10:39:48.570Z,71.44
2019-03-26T10:42:20.750Z,71.93
2019-03-26T10:44:53.348Z,71.26
2019-03-26T10:47:25.463Z,71.83
2019-03-26T10:49:57.359Z,71.40
2019-03-26T10:52:34.273Z,71.50
2019-03-26T10:55:05.764Z,70.56
2019-03-26T10:57:38.135Z,70.14
2019-03-26T11:00:10.722Z,70.38
2019-03-26T11:02:42.867Z,69.30
2019-03-26T11:05:15.489Z,67.10
2019-03-26T11:07:48.472Z,66.28
2019-03-26T11:10:20.502Z,66.14
2019-03-26T11:12:52.863Z,64.34
2019-03-26T11:15:24.878Z,64.86
2019-03-26T11:17:56.770Z,62.05
2019-03-26T11:20:28.964Z,62.40
2019-03-26T11:23:01.490Z,62.25
2019-03-26T11:25:33.619Z,61.04
2019-03-26T11:28:05.973Z,60.39
2019-03-26T11:30:37.868Z,58.71
2019-03-26T11:33:09.927Z,59.87
2019-03-26T11:35:42.303Z,59.13
2019-03-26T11:38:14.505Z,60.49
2019-03-26T11:40:46.600Z,61.10
2019-03-26T11:43:19.060Z,60.48
2019-03-26T11:45:51.311Z,61.54
2019-03-26T11:48:23.271Z,63.24
2019-03-26T11:50:55.592Z,63.59
2019-03-26T11:53:27.809Z,63.29
2019-03-26T11:55:59.818Z,64.36
2019-03-26T11:58:31.845Z,64.99
2019-03-26T12:01:05.031Z,65.71
2019-03-26T12:03:37.047Z,67.84
2019-03-26T12:06:09.332Z,66.40
2019-03-26T12:08:41.280Z,65.20
2019-03-26T12:11:13.231Z,65.14
2019-03-26T12:13:45.450Z,64.96
2019-03-26T12:16:17.572Z,63.37
2019-03-26T12:18:49.639Z,64.22
2019-03-26T12:21:21.822Z,63.33
2019-03-26T12:23:53.886Z,63.50
2019-03-26T12:26:26.117Z,63.60
2019-03-26T12:28:58.361Z,63.64
2019-03-26T12:31:30.287Z,64.17
2019-03-26T12:34:03.528Z,65.22
2019-03-26T12:36:40.193Z,64.44
2019-03-26T12:39:09.589Z,65.63
2019-03-26T12:41:41.590Z,63.93
2019-03-26T12:44:13.548Z,64.96
2019-03-26T12:46:45.578Z,63.91
2019-03-26T12:49:17.849Z,63.58
2019-03-26T12:51:51.041Z,62.62
2019-03-26T12:54:23.036Z,62.91
2019-03-26T12:56:55.164Z,62.04
2019-03-26T12:59:27.259Z,64.10
2019-03-26T13:01:59.271Z,65.29
2019-03-26T13:04:31.517Z,64.08
2019-03-26T13:07:03.766Z,63.71
2019-03-26T13:09:35.871Z,63.22
2019-03-26T13:12:08.062Z,59.25
2019-03-26T13:14:40.195Z,56.72
2019-03-26T13:17:12.213Z,59.31
2019-03-26T13:19:44.255Z,59.60
2019-03-26T13:22:16.043Z,60.92
2019-03-26T13:24:48.256Z,62.20
2019-03-26T13:27:20.342Z,57.40
2019-03-26T13:29:52.427Z,54.99
2019-03-26T13:32:24.500Z,55.34
2019-03-26T13:34:56.291Z,54.01
2019-03-26T13:37:28.200Z,53.13
2019-03-26T13:40:00.587Z,54.51
2019-03-26T13:42:32.822Z,55.29
2019-03-26T13:45:05.124Z,55.24
2019-03-26T13:47:36.950Z,55.46
2019-03-26T13:50:09.463Z,56.51
2019-03-26T13:52:41.717Z,55.92
2019-03-26T13:55:14.143Z,56.21
2019-03-26T13:57:46.130Z,56.15
2019-03-26T14:00:24.096Z,55.88
2019-03-26T14:02:56.158Z,54.14
2019-03-26T14:05:28.340Z,54.66
2019-03-26T14:08:00.513Z,55.35
2019-03-26T14:10:40.718Z,53.46
2019-03-26T14:13:06.858Z,55.77
2019-03-26T14:15:39.132Z,54.65
2019-03-26T14:18:11.087Z,56.43
2019-03-26T14:20:42.985Z,58.71
2019-03-26T14:23:15.307Z,64.84
2019-03-26T14:25:47.208Z,67.48
2019-03-26T14:28:19.045Z,69.69
2019-03-26T14:30:51.428Z,70.79
2019-03-26T14:33:23.376Z,71.96
2019-03-26T14:35:55.406Z,71.71
2019-03-26T14:38:27.571Z,71.06
2019-03-26T14:40:59.555Z,70.21
2019-03-26T14:43:31.712Z,68.95
2019-03-26T14:46:04.020Z,68.27
2019-03-26T14:48:36.104Z,68.20
2019-03-26T14:51:08.177Z,65.14
2019-03-26T14:53:40.231Z,65.73
2019-03-26T14:56:12.412Z,66.76
2019-03-26T14:58:44.586Z,66.86
2019-03-26T15:01:16.967Z,65.36
2019-03-26T15:03:49.665Z,65.61
2019-03-26T15:06:22.237Z,64.41
2019-03-26T15:08:54.255Z,62.74
2019-03-26T15:11:26.101Z,64.46
2019-03-26T15:13:58.145Z,62.63
2019-03-26T15:16:30.405Z,61.88
2019-03-26T15:19:03.552Z,59.43
2019-03-26T15:21:35.608Z,61.34
2019-03-26T15:24:07.654Z,60.80
2019-03-26T15:26:39.869Z,60.57
2019-03-26T15:29:12.018Z,58.84
2019-03-26T15:31:45.107Z,59.56
2019-03-26T15:34:17.040Z,57.40
2019-03-26T15:36:49.165Z,58.66
2019-03-26T15:39:21.255Z,57.99
2019-03-26T15:41:53.228Z,59.89
2019-03-26T15:44:25.397Z,58.78
2019-03-26T15:46:57.535Z,57.74
2019-03-26T15:49:29.859Z,57.62
2019-03-26T15:52:04.697Z,56.72
2019-03-26T15:54:36.954Z,57.24
2019-03-26T15:57:10.901Z,56.25
2019-03-26T15:59:43.104Z,55.10
2019-03-26T16:02:15.125Z,54.83
2019-03-26T16:04:47.039Z,53.86
2019-03-26T16:07:18.975Z,53.35
2019-03-26T16:09:51.712Z,53.56
2019-03-26T16:12:23.858Z,55.70
2019-03-26T16:14:55.934Z,57.21
2019-03-26T16:17:28.083Z,59.60
2019-03-26T16:20:00.360Z,60.80
2019-03-26T16:22:32.816Z,63.38
2019-03-26T16:25:05.397Z,64.62
2019-03-26T16:27:35.769Z,65.30
2019-03-26T16:30:06.414Z,66.15
2019-03-26T16:32:36.962Z,65.60
2019-03-26T16:35:08.592Z,66.74
2019-03-26T16:37:38.954Z,66.91
2019-03-26T16:40:09.497Z,65.18
2019-03-26T16:42:41.707Z,65.96
2019-03-26T16:45:12.463Z,65.97
2019-03-26T16:47:43.126Z,64.63
2019-03-26T16:50:13.601Z,65.12
2019-03-26T16:52:44.486Z,64.73
2019-03-26T16:55:15.158Z,64.94
2019-03-26T16:57:45.942Z,66.00
2019-03-26T17:00:18.224Z,65.66
2019-03-26T17:02:49.266Z,66.03
2019-03-26T17:05:22.811Z,66.34
2019-03-26T17:07:53.247Z,66.77
2019-03-26T17:10:24.776Z,66.30
2019-03-26T17:12:55.247Z,66.67
2019-03-26T17:15:25.882Z,66.80
2019-03-26T17:17:56.318Z,66.40
2019-03-26T17:20:27.229Z,66.87
2019-03-26T17:22:57.746Z,66.65
2019-03-26T17:25:28.097Z,67.23
2019-03-26T17:27:58.922Z,67.21
2019-03-26T17:30:29.339Z,67.52
2019-03-26T17:33:00.184Z,67.71
2019-03-26T17:35:30.662Z,66.92
2019-03-26T17:38:01.276Z,67.41
2019-03-26T17:40:31.968Z,67.12
2019-03-26T17:43:03.245Z,68.00
2019-03-26T17:45:33.948Z,67.36
2019-03-26T17:48:04.439Z,67.41
2019-03-26T17:50:34.950Z,67.30
2019-03-26T17:53:06.601Z,67.77
2019-03-26T17:55:37.506Z,67.73
2019-03-26T17:58:09.074Z,67.82
2019-03-26T18:00:41.045Z,67.86
2019-03-26T18:03:25.643Z,67.49
2019-03-26T18:05:45.084Z,67.54
2019-03-26T18:08:15.742Z,67.52
2019-03-26T18:10:46.370Z,67.18
2019-03-26T18:13:17.130Z,67.68
2019-03-26T18:15:47.701Z,67.09
2019-03-26T18:19:24.437Z,67.46
2019-03-26T18:21:56.487Z,67.25
2019-03-26T18:24:28.392Z,67.86
2019-03-26T18:27:00.375Z,66.95
2019-03-26T18:29:32.293Z,66.56
2019-03-26T18:32:04.667Z,65.98
2019-03-26T18:34:36.886Z,65.61
2019-03-26T18:37:09.081Z,65.49
2019-03-26T18:39:41.393Z,65.53
2019-03-26T18:42:13.347Z,65.45
2019-03-26T18:44:45.437Z,64.85
2019-03-26T18:47:17.811Z,65.16
2019-03-26T18:49:49.740Z,65.08
2019-03-26T18:52:21.923Z,64.29
2019-03-26T18:54:53.967Z,63.98
2019-03-26T18:57:26.510Z,63.63
2019-03-26T18:59:58.562Z,63.49
2019-03-26T19:02:30.661Z,63.62
2019-03-26T19:05:02.692Z,63.97
2019-03-26T19:07:35.156Z,63.30
2019-03-26T19:10:08.614Z,64.25
2019-03-26T19:12:40.778Z,63.53
2019-03-26T19:15:12.915Z,64.17
2019-03-26T19:17:45.175Z,63.36
2019-03-26T19:20:17.374Z,63.70
2019-03-26T19:22:49.421Z,63.92
2019-03-26T19:25:21.595Z,64.12
2019-03-26T19:27:53.692Z,63.87
2019-03-26T19:30:25.670Z,64.03
2019-03-26T19:32:58.090Z,64.46
2019-03-26T19:35:30.149Z,64.73
2019-03-26T19:38:02.645Z,64.66
2019-03-26T19:40:34.992Z,64.10
2019-03-26T19:43:11.323Z,64.66
2019-03-26T19:45:41.194Z,64.54
2019-03-26T19:48:13.234Z,64.08
2019-03-26T19:50:45.167Z,63.92
2019-03-26T19:53:17.524Z,64.31
2019-03-26T19:55:49.808Z,64.38
2019-03-26T19:58:22.059Z,64.41
2019-03-26T20:00:54.750Z,64.71
2019-03-26T20:03:26.904Z,64.89
2019-03-26T20:06:12.493Z,64.85
2019-03-26T20:08:33.138Z,64.79
2019-03-26T20:11:05.474Z,65.56
2019-03-26T20:13:37.940Z,65.12
2019-03-26T20:16:11.177Z,64.81
2019-03-26T20:18:43.464Z,64.79
2019-03-26T20:21:15.768Z,65.16
2019-03-26T20:23:48.228Z,65.42
2019-03-26T20:26:20.248Z,65.72
2019-03-26T20:28:52.368Z,65.32
2019-03-26T20:31:24.658Z,65.53
2019-03-26T20:33:57.016Z,65.67
2019-03-26T20:36:30.507Z,65.46
2019-03-26T20:39:02.688Z,65.60
2019-03-26T20:41:36.488Z,65.85
2019-03-26T20:44:08.716Z,66.26
2019-03-26T20:46:40.720Z,66.73
2019-03-26T20:49:13.246Z,67.28
2019-03-26T20:51:45.407Z,67.80
2019-03-26T20:54:17.738Z,67.87
2019-03-26T20:56:50.575Z,67.84
2019-03-26T20:59:23.098Z,68.70
2019-03-26T21:01:55.470Z,68.70
2019-03-26T21:04:27.579Z,68.33
2019-03-26T21:06:59.932Z,68.42
2019-03-26T21:09:32.063Z,68.33
2019-03-26T21:12:04.630Z,68.45
2019-03-26T21:14:36.873Z,68.55
2019-03-26T21:17:09.083Z,68.50
2019-03-26T21:19:40.901Z,68.51
2019-03-26T21:22:13.062Z,68.99
2019-03-26T21:24:45.191Z,69.16
2019-03-26T21:27:17.762Z,69.32
2019-03-26T21:29:49.827Z,69.49
2019-03-26T21:32:22.083Z,68.95
2019-03-26T21:34:54.414Z,68.89
2019-03-26T21:37:26.490Z,68.69
2019-03-26T21:39:58.348Z,68.79
2019-03-26T21:42:30.228Z,69.18
2019-03-26T21:45:00.610Z,69.19
2019-03-26T21:47:31.624Z,69.07
2019-03-26T21:50:02.993Z,69.06
2019-03-26T21:52:33.542Z,69.00
2019-03-26T21:55:04.361Z,69.47
2019-03-26T21:57:35.047Z,69.31
2019-03-26T22:00:06.902Z,69.24
2019-03-26T22:02:38.890Z,69.62
2019-03-26T22:05:09.552Z,69.51
2019-03-26T22:07:40.344Z,69.46
2019-03-26T22:10:11.975Z,69.86
2019-03-26T22:12:42.868Z,69.82
2019-03-26T22:15:13.308Z,70.05
2019-03-26T22:17:44.057Z,69.79
2019-03-26T22:20:14.850Z,69.73
2019-03-26T22:22:45.440Z,69.67
2019-03-26T22:25:15.927Z,69.75
2019-03-26T22:27:46.691Z,69.97
2019-03-26T22:30:18.658Z,70.34
2019-03-26T22:32:49.010Z,70.76
2019-03-26T22:35:21.385Z,70.51
2019-03-26T22:37:52.072Z,70.77
2019-03-26T22:40:23.077Z,70.67
2019-03-26T22:42:53.670Z,70.74
2019-03-26T22:45:24.296Z,70.72
2019-03-26T22:47:55.007Z,70.78
2019-03-26T22:50:25.781Z,70.55
2019-03-26T22:52:56.657Z,70.52
2019-03-26T22:55:27.196Z,70.78
2019-03-26T22:57:58.149Z,70.82
2019-03-26T23:00:30.434Z,70.87
2019-03-26T23:03:02.638Z,71.02
2019-03-26T23:05:33.199Z,71.34
2019-03-26T23:08:03.944Z,71.59
2019-03-26T23:10:34.938Z,71.62
2019-03-26T23:13:05.755Z,71.57
2019-03-26T23:15:36.420Z,71.76
2019-03-26T23:18:06.995Z,71.90
2019-03-26T23:20:37.791Z,72.01
2019-03-26T23:23:08.430Z,72.24
2019-03-26T23:25:39.147Z,72.35
2019-03-26T23:28:09.805Z,72.28
2019-03-26T23:30:40.730Z,72.57
2019-03-26T23:33:11.146Z,72.24
2019-03-26T23:35:41.749Z,72.02
2019-03-26T23:38:12.463Z,72.31
2019-03-26T23:40:43.098Z,72.52
2019-03-26T23:43:13.622Z,72.42
2019-03-26T23:45:44.331Z,71.92
2019-03-26T23:48:14.959Z,71.87
2019-03-26T23:50:45.413Z,71.71
2019-03-26T23:53:16.425Z,71.97
2019-03-26T23:55:47.483Z,71.96
2019-03-26T23:58:17.969Z,72.16
